Saturday, October 20, 2018, 7:04 AM EDT
Back to Local

KJFK, Kennedy International Airport

Location: Rosedale, NY, United States Lat: 40.633
Local Time: 7:04 AM EDT (11:04 GMT) Lon: -73.767
Time Zone: US/Eastern Elev: 13 ft

Show me the last for .
Show Decoded

2018-10-20 06:51 METAR KJFK 201051Z 22013KT 10SM BKN055 OVC130 13/12 A2977 RMK AO2 RAE17 SLP080
                 P0000 T01330122 =
2018-10-20 05:51 METAR KJFK 200951Z 21014KT 10SM -RA BKN060 BKN090 OVC110 13/12 A2978 RMK AO2
                 SLP084 P0005 T01280117 =
2018-10-20 04:51 METAR KJFK 200851Z 22011KT 10SM -RA FEW040 OVC080 12/11 A2980 RMK AO2 SLP091
                 P0002 60003 T01220111 58023 =
2018-10-20 03:51 METAR KJFK 200751Z 22011KT 10SM -RA OVC085 13/11 A2983 RMK AO2 SLP101 P0001
                 T01280106 =
2018-10-20 02:51 METAR KJFK 200651Z 22015KT 10SM -RA SCT055 OVC100 14/09 A2985 RMK AO2 RAB33
                 SLP108 P0000 T01390094 =
2018-10-20 01:51 METAR KJFK 200551Z 22010KT 10SM FEW055 BKN110 OVC140 14/09 A2987 RMK AO2
                 RAB30E39 SLP114 P0000 60000 T01390094 10139 20133 58037 =
2018-10-20 00:51 METAR KJFK 200451Z 22012KT 10SM SCT130 BKN170 OVC230 14/09 A2991 RMK AO2 SLP127
                 T01390094 401560050 =
2018-10-19 23:51 METAR KJFK 200351Z 21017KT 10SM FEW130 BKN160 OVC210 14/09 A2994 RMK AO2 PK WND
                 22026/0302 SLP139 T01390089 =
2018-10-19 22:51 METAR KJFK 200251Z 21016KT 10SM FEW140 BKN180 OVC230 14/08 A2998 RMK AO2 SLP151
                 T01390078 58027 =
2018-10-19 21:51 METAR KJFK 200151Z 22014KT 10SM BKN200 BKN250 14/07 A3001 RMK AO2 SLP162
                 T01390072 =
2018-10-19 20:51 METAR KJFK 200051Z 21013G20KT 10SM BKN220 BKN250 14/08 A3002 RMK AO2 SLP166
                 T01390083 =
2018-10-19 19:51 METAR KJFK 192351Z 21014KT 10SM BKN200 BKN250 13/07 A3006 RMK AO2 SLP177
                 T01330072 10156 20133 56013 =
2018-10-19 18:51 METAR KJFK 192251Z 21012KT 10SM BKN190 BKN250 13/06 A3006 RMK AO2 SLP180
                 T01330061 =
2018-10-19 17:51 METAR KJFK 192151Z 22012KT 10SM SCT180 BKN250 14/04 A3008 RMK AO2 SLP185
                 T01390044 =
2018-10-19 16:51 METAR KJFK 192051Z 22013KT 10SM SCT220 BKN250 14/03 A3010 RMK AO2 SLP191
                 T01440033 56029 =
2018-10-19 15:51 METAR KJFK 191951Z 22015KT 10SM FEW170 BKN250 15/02 A3011 RMK AO2 SLP195
                 T01500022 =
2018-10-19 14:51 METAR KJFK 191851Z 23016KT 10SM BKN250 14/03 A3014 RMK AO2 SLP206 T01440028 =
2018-10-19 13:51 METAR KJFK 191751Z 23014KT 10SM BKN250 14/03 A3018 RMK AO2 SLP220 T01390033
                 10150 20078 58034 =
2018-10-19 12:51 METAR KJFK 191651Z 23016KT 10SM BKN250 14/04 A3022 RMK AO2 SLP233 T01390039 =
2018-10-19 11:51 METAR KJFK 191551Z 24011KT 10SM SCT250 13/03 A3025 RMK AO2 SLP243 T01330028 =
2018-10-19 10:51 METAR KJFK 191451Z 25012KT 10SM FEW250 12/02 A3028 RMK AO2 SLP254 T01170017
                 58017 =
2018-10-19 09:51 METAR KJFK 191351Z 25012KT 10SM FEW250 11/02 A3031 RMK AO2 SLP262 T01060017 $ =
2018-10-19 08:51 METAR KJFK 191251Z 26010KT 10SM FEW250 09/02 A3032 RMK AO2 SLP267 T00940022
                 VISNO W $ =
2018-10-19 07:51 METAR KJFK 191151Z 26010KT 10SM FEW250 08/03 A3033 RMK AO2 SLP271 T00780028
                 10078 20061 53003 VISNO W $ =

Support USWX by starting your Amazon purchase here.